Time;durP1;ratioP1;P1;durP2;ratioP2;P2;SDS_P1;SDS_P2;PMS_P1;PMS_P2;Temp;Humidity;BMP_temperature;BMP_pressure;BME280_temperature;BME280_humidity;BME280_pressure;Samples;Min_cycle;Max_cycle;Signal;HPM_P1;HPM_P2
2022/07/07 00:02:21;;;;;;;4.70;3.47;;;;;;;;;;5323327;28;20020;-69
2022/07/07 00:04:52;;;;;;;5.65;3.30;;;;;;;;;;5324695;28;20011;-66
2022/07/07 00:07:24;;;;;;;7.03;3.95;;;;;;;;;;5324072;28;20019;-70
2022/07/07 00:09:55;;;;;;;6.55;3.45;;;;;;;;;;5324083;28;20020;-68
2022/07/07 00:12:26;;;;;;;6.03;3.28;;;;;;;;;;5324070;28;20016;-67
2022/07/07 00:14:57;;;;;;;6.53;3.25;;;;;;;;;;5324319;28;20019;-67
2022/07/07 00:17:29;;;;;;;5.15;2.88;;;;;;;;;;5323116;28;20024;-68
2022/07/07 00:20:00;;;;;;;6.72;3.72;;;;;;;;;;5323970;28;20093;-68
2022/07/07 00:22:31;;;;;;;6.13;3.55;;;;;;;;;;5324172;28;20405;-68
2022/07/07 00:25:03;;;;;;;5.63;2.78;;;;;;;;;;5323226;28;20546;-68
2022/07/07 00:27:34;;;;;;;6.15;3.38;;;;;;;;;;5324197;28;20019;-68
2022/07/07 00:30:06;;;;;;;5.93;2.77;;;;;;;;;;5324079;28;20022;-68
2022/07/07 00:32:37;;;;;;;4.18;2.70;;;;;;;;;;5322970;28;20265;-68
2022/07/07 00:35:08;;;;;;;5.03;2.87;;;;;;;;;;5324041;28;20020;-68
2022/07/07 00:37:39;;;;;;;4.63;2.93;;;;;;;;;;5322819;28;20289;-67
2022/07/07 00:40:11;;;;;;;4.70;2.65;;;;;;;;;;5323686;28;20356;-68
2022/07/07 00:42:42;;;;;;;6.22;2.50;;;;;;;;;;5323601;28;20382;-68
2022/07/07 00:45:13;;;;;;;5.35;2.70;;;;;;;;;;5323011;28;20064;-68
2022/07/07 00:47:45;;;;;;;3.93;2.47;;;;;;;;;;5323771;28;20027;-67
2022/07/07 00:50:16;;;;;;;3.67;1.88;;;;;;;;;;5323663;28;20269;-68
2022/07/07 00:52:47;;;;;;;3.90;2.08;;;;;;;;;;5322926;28;20020;-67
2022/07/07 00:55:19;;;;;;;5.63;2.27;;;;;;;;;;5323227;28;20019;-68
2022/07/07 00:57:50;;;;;;;3.28;1.52;;;;;;;;;;5323940;28;20300;-67
2022/07/07 01:00:21;;;;;;;3.20;1.97;;;;;;;;;;5322584;28;20022;-67
2022/07/07 01:02:52;;;;;;;3.17;1.92;;;;;;;;;;5323657;28;20261;-67
2022/07/07 01:05:24;;;;;;;4.00;2.50;;;;;;;;;;5323133;28;20549;-67
2022/07/07 01:07:55;;;;;;;4.15;2.15;;;;;;;;;;5323278;28;20030;-67
2022/07/07 01:10:26;;;;;;;5.25;2.20;;;;;;;;;;5323152;28;20542;-67
2022/07/07 01:13:01;;;;;;;5.18;2.35;;;;;;;;;;5322957;28;20062;-67
2022/07/07 01:15:32;;;;;;;3.17;2.03;;;;;;;;;;5323456;28;20636;-68
2022/07/07 01:18:04;;;;;;;3.53;1.85;;;;;;;;;;5323379;28;20043;-67
2022/07/07 01:20:36;;;;;;;3.80;2.22;;;;;;;;;;5322276;28;20043;-68
2022/07/07 01:23:08;;;;;;;5.00;2.00;;;;;;;;;;5323317;28;20100;-67
2022/07/07 01:25:39;;;;;;;5.75;2.35;;;;;;;;;;5325020;28;20447;-68
2022/07/07 01:28:10;;;;;;;6.47;1.85;;;;;;;;;;5326864;28;20022;-68
2022/07/07 01:30:41;;;;;;;3.35;1.85;;;;;;;;;;5327448;28;20043;-68
2022/07/07 01:33:14;;;;;;;3.60;1.52;;;;;;;;;;5327717;28;20414;-68
2022/07/07 01:35:45;;;;;;;3.97;2.20;;;;;;;;;;5326810;28;20065;-67
2022/07/07 01:38:17;;;;;;;8.38;2.72;;;;;;;;;;5327345;28;20031;-68
2022/07/07 01:40:48;;;;;;;6.60;1.90;;;;;;;;;;5326794;28;20030;-67
2022/07/07 01:43:19;;;;;;;3.63;1.42;;;;;;;;;;5326784;28;20385;-68
2022/07/07 01:45:50;;;;;;;8.60;1.92;;;;;;;;;;5327702;28;20016;-67
2022/07/07 01:48:22;;;;;;;5.97;1.97;;;;;;;;;;5326310;28;20027;-68
2022/07/07 01:50:53;;;;;;;4.40;1.75;;;;;;;;;;5327553;28;20728;-67
2022/07/07 01:53:24;;;;;;;4.32;2.00;;;;;;;;;;5326805;28;20012;-68
2022/07/07 01:56:01;;;;;;;7.15;2.10;;;;;;;;;;5326425;28;20031;-67
2022/07/07 01:58:33;;;;;;;7.45;2.35;;;;;;;;;;5326859;28;20119;-68
2022/07/07 02:01:04;;;;;;;3.03;1.95;;;;;;;;;;5327079;28;20510;-69
2022/07/07 02:03:35;;;;;;;7.00;2.65;;;;;;;;;;5325935;28;20027;-68
2022/07/07 02:06:06;;;;;;;3.83;2.28;;;;;;;;;;5326643;28;20475;-68
2022/07/07 02:08:37;;;;;;;6.55;2.33;;;;;;;;;;5326995;28;20470;-67
2022/07/07 02:11:14;;;;;;;3.05;1.55;;;;;;;;;;5326094;28;20020;-68
2022/07/07 02:13:49;;;;;;;4.93;1.92;;;;;;;;;;5326629;28;20102;-68
2022/07/07 02:16:21;;;;;;;3.80;2.00;;;;;;;;;;5325594;28;20103;-68
2022/07/07 02:18:53;;;;;;;4.90;1.70;;;;;;;;;;5326156;28;20130;-68
2022/07/07 02:21:25;;;;;;;4.40;1.50;;;;;;;;;;5325185;28;20411;-70
2022/07/07 02:23:56;;;;;;;3.75;1.55;;;;;;;;;;5324960;28;20047;-67
2022/07/07 02:26:27;;;;;;;3.78;1.30;;;;;;;;;;5324968;28;20015;-68
2022/07/07 02:28:59;;;;;;;3.83;1.45;;;;;;;;;;5325468;28;20043;-68
2022/07/07 02:31:30;;;;;;;3.53;1.33;;;;;;;;;;5324535;28;20011;-69
2022/07/07 02:34:01;;;;;;;4.35;1.30;;;;;;;;;;5325214;28;20016;-68
2022/07/07 02:36:33;;;;;;;3.80;1.23;;;;;;;;;;5324766;28;20048;-68
2022/07/07 02:39:04;;;;;;;6.05;1.48;;;;;;;;;;5324158;28;20313;-68
2022/07/07 02:41:35;;;;;;;2.72;1.38;;;;;;;;;;5324846;28;20016;-68
2022/07/07 02:44:06;;;;;;;3.38;1.27;;;;;;;;;;5324134;28;20035;-69
2022/07/07 02:46:37;;;;;;;3.97;0.85;;;;;;;;;;5324869;28;20281;-67
2022/07/07 02:49:09;;;;;;;5.10;1.00;;;;;;;;;;5324603;28;20051;-67
2022/07/07 02:51:41;;;;;;;4.38;1.00;;;;;;;;;;5323997;28;20323;-68
2022/07/07 02:54:12;;;;;;;1.98;0.88;;;;;;;;;;5324630;28;20007;-68
2022/07/07 02:56:43;;;;;;;3.35;1.00;;;;;;;;;;5324880;28;20027;-67
2022/07/07 02:59:14;;;;;;;5.22;1.00;;;;;;;;;;5323903;28;20027;-68
2022/07/07 03:01:45;;;;;;;3.77;1.00;;;;;;;;;;5324569;28;20020;-68
2022/07/07 03:04:16;;;;;;;5.75;0.90;;;;;;;;;;5324569;28;20269;-67
2022/07/07 03:06:47;;;;;;;5.15;1.20;;;;;;;;;;5323693;28;20012;-67
2022/07/07 03:09:19;;;;;;;5.18;1.35;;;;;;;;;;5324268;28;20752;-68
2022/07/07 03:11:50;;;;;;;7.50;1.10;;;;;;;;;;5324719;28;20047;-68
2022/07/07 03:14:21;;;;;;;3.40;1.20;;;;;;;;;;5323453;28;20515;-68
2022/07/07 03:16:52;;;;;;;2.78;1.35;;;;;;;;;;5324481;28;20276;-67
2022/07/07 03:19:23;;;;;;;3.55;0.90;;;;;;;;;;5287293;28;1022537;-68
2022/07/07 03:21:54;;;;;;;4.95;0.82;;;;;;;;;;5325820;28;20123;-68
2022/07/07 03:24:26;;;;;;;1.95;0.70;;;;;;;;;;5325088;28;20035;-68
2022/07/07 03:27:00;;;;;;;1.38;0.60;;;;;;;;;;5324815;28;20019;-69
2022/07/07 03:29:32;;;;;;;2.72;0.60;;;;;;;;;;5325158;28;20034;-68
2022/07/07 03:32:03;;;;;;;2.45;0.50;;;;;;;;;;5325010;28;20019;-68
2022/07/07 03:34:34;;;;;;;2.60;0.45;;;;;;;;;;5324131;28;20482;-68
2022/07/07 03:37:06;;;;;;;2.47;0.40;;;;;;;;;;5325144;28;20027;-68
2022/07/07 03:39:37;;;;;;;1.10;0.47;;;;;;;;;;5325077;28;20637;-68
2022/07/07 03:42:08;;;;;;;1.83;0.50;;;;;;;;;;5324003;28;20016;-68
2022/07/07 03:44:39;;;;;;;4.38;0.50;;;;;;;;;;5325127;28;20273;-68
2022/07/07 03:47:13;;;;;;;2.50;0.67;;;;;;;;;;5324757;28;20024;-68
2022/07/07 03:49:44;;;;;;;2.05;0.70;;;;;;;;;;5323407;28;20273;-68
2022/07/07 03:52:16;;;;;;;2.92;0.65;;;;;;;;;;5324730;28;20029;-67
2022/07/07 03:54:47;;;;;;;3.15;0.90;;;;;;;;;;5323727;28;20265;-68
2022/07/07 03:57:19;;;;;;;2.17;0.93;;;;;;;;;;5324356;28;20462;-68
2022/07/07 03:59:50;;;;;;;3.45;0.80;;;;;;;;;;5325003;28;20074;-68
2022/07/07 04:02:21;;;;;;;1.70;0.93;;;;;;;;;;5323419;28;20019;-69
2022/07/07 04:04:52;;;;;;;2.30;1.07;;;;;;;;;;5324439;28;20073;-68
2022/07/07 04:07:23;;;;;;;3.45;1.13;;;;;;;;;;5324022;28;20779;-68
2022/07/07 04:09:55;;;;;;;1.65;1.05;;;;;;;;;;5323914;28;20291;-68
2022/07/07 04:12:26;;;;;;;5.10;1.00;;;;;;;;;;5324011;28;20272;-68
2022/07/07 04:14:57;;;;;;;3.28;1.05;;;;;;;;;;5324682;28;20015;-68
2022/07/07 04:17:28;;;;;;;5.45;1.23;;;;;;;;;;5322856;28;20321;-68
2022/07/07 04:19:59;;;;;;;2.20;1.10;;;;;;;;;;5323983;28;20055;-68
2022/07/07 04:22:31;;;;;;;2.42;1.40;;;;;;;;;;5324040;28;20640;-68
2022/07/07 04:25:02;;;;;;;2.97;1.08;;;;;;;;;;5323154;28;20632;-68
2022/07/07 04:27:34;;;;;;;2.22;1.33;;;;;;;;;;5324070;28;20748;-68
2022/07/07 04:30:06;;;;;;;2.33;1.02;;;;;;;;;;5323048;28;20015;-68
2022/07/07 04:32:37;;;;;;;2.92;1.23;;;;;;;;;;5323939;28;20059;-68
2022/07/07 04:35:08;;;;;;;1.83;1.13;;;;;;;;;;5323684;28;20095;-68
2022/07/07 04:37:39;;;;;;;3.65;1.15;;;;;;;;;;5322877;28;20296;-68
2022/07/07 04:40:11;;;;;;;3.50;1.00;;;;;;;;;;5323672;28;20099;-68
2022/07/07 04:42:42;;;;;;;5.22;1.00;;;;;;;;;;5323909;28;20046;-68
2022/07/07 04:45:14;;;;;;;2.55;0.95;;;;;;;;;;5322875;28;20081;-68
2022/07/07 04:47:45;;;;;;;4.68;0.93;;;;;;;;;;5323737;28;20319;-68
2022/07/07 04:50:16;;;;;;;2.33;0.80;;;;;;;;;;5323727;28;20756;-68
2022/07/07 04:52:47;;;;;;;2.80;0.60;;;;;;;;;;5322704;28;20149;-68
2022/07/07 04:55:19;;;;;;;1.95;0.55;;;;;;;;;;5323438;28;20424;-68
2022/07/07 04:57:50;;;;;;;1.52;0.50;;;;;;;;;;5323136;28;20024;-68
2022/07/07 05:00:21;;;;;;;2.35;0.40;;;;;;;;;;5323229;28;20020;-68
2022/07/07 05:02:52;;;;;;;2.83;0.40;;;;;;;;;;5323644;28;20266;-67
2022/07/07 05:05:23;;;;;;;2.28;0.40;;;;;;;;;;5322385;28;20011;-67
2022/07/07 05:07:55;;;;;;;0.90;0.50;;;;;;;;;;5324041;28;20012;-68
2022/07/07 05:10:27;;;;;;;2.72;0.52;;;;;;;;;;5323245;28;20269;-68
2022/07/07 05:12:58;;;;;;;2.92;0.30;;;;;;;;;;5322932;28;20257;-68
2022/07/07 05:15:29;;;;;;;2.07;0.30;;;;;;;;;;5323072;28;20121;-67
2022/07/07 05:18:00;;;;;;;3.10;0.30;;;;;;;;;;5323201;28;20289;-67
2022/07/07 05:20:31;;;;;;;1.08;0.25;;;;;;;;;;5322365;28;20055;-67
2022/07/07 05:23:03;;;;;;;2.90;0.63;;;;;;;;;;5323340;28;20265;-67
2022/07/07 05:25:34;;;;;;;5.30;0.55;;;;;;;;;;5323314;28;20262;-68
2022/07/07 05:28:05;;;;;;;3.10;0.80;;;;;;;;;;5322414;28;20153;-67
2022/07/07 05:30:36;;;;;;;1.93;0.40;;;;;;;;;;5323027;28;20257;-68
2022/07/07 05:33:07;;;;;;;3.65;0.45;;;;;;;;;;5322418;28;20285;-68
2022/07/07 05:35:39;;;;;;;2.22;0.43;;;;;;;;;;5323263;28;20011;-67
2022/07/07 05:38:10;;;;;;;2.45;0.30;;;;;;;;;;5322899;28;20301;-68
2022/07/07 05:40:41;;;;;;;4.72;0.35;;;;;;;;;;5322244;28;20261;-68
2022/07/07 05:43:12;;;;;;;4.50;0.40;;;;;;;;;;5323073;28;20028;-69
2022/07/07 05:45:44;;;;;;;1.95;0.30;;;;;;;;;;5323112;28;20015;-69
2022/07/07 05:48:15;;;;;;;3.88;0.32;;;;;;;;;;5321960;28;20770;-68
2022/07/07 05:50:46;;;;;;;1.75;0.30;;;;;;;;;;5322764;28;20606;-69
2022/07/07 05:53:17;;;;;;;3.88;0.50;;;;;;;;;;5323014;28;20732;-69
2022/07/07 05:55:48;;;;;;;3.15;0.30;;;;;;;;;;5322242;28;20026;-69
2022/07/07 05:58:19;;;;;;;2.73;0.30;;;;;;;;;;5322612;28;20297;-69
2022/07/07 06:00:50;;;;;;;3.92;0.30;;;;;;;;;;5323220;28;20367;-69
2022/07/07 06:03:22;;;;;;;4.88;0.68;;;;;;;;;;5321678;28;20272;-69
2022/07/07 06:05:53;;;;;;;5.50;0.40;;;;;;;;;;5323077;28;20477;-66
2022/07/07 06:08:25;;;;;;;6.68;0.55;;;;;;;;;;5321860;28;20028;-67
2022/07/07 06:10:56;;;;;;;3.38;0.52;;;;;;;;;;5323480;28;20016;-67
2022/07/07 06:13:27;;;;;;;5.13;0.70;;;;;;;;;;5326229;28;20027;-67
2022/07/07 06:15:58;;;;;;;4.40;0.47;;;;;;;;;;5326103;28;20775;-68
2022/07/07 06:18:30;;;;;;;4.78;0.40;;;;;;;;;;5326043;28;20026;-67
2022/07/07 06:21:01;;;;;;;5.72;0.40;;;;;;;;;;5326626;28;20018;-68
2022/07/07 06:23:32;;;;;;;5.28;0.50;;;;;;;;;;5325568;28;20266;-68
2022/07/07 06:26:03;;;;;;;6.25;0.50;;;;;;;;;;5326380;28;20257;-68
2022/07/07 06:28:34;;;;;;;4.07;0.30;;;;;;;;;;5320049;28;20054;-67
2022/07/07 06:31:05;;;;;;;10.77;1.40;;;;;;;;;;5314661;28;20379;-68
2022/07/07 06:33:37;;;;;;;6.28;0.60;;;;;;;;;;5304052;28;20361;-69
2022/07/07 06:36:08;;;;;;;10.23;1.30;;;;;;;;;;5304263;28;20307;-69
2022/07/07 06:38:39;;;;;;;7.53;1.20;;;;;;;;;;5303538;28;20290;-69
2022/07/07 06:41:10;;;;;;;6.20;0.70;;;;;;;;;;5304498;28;20258;-69
2022/07/07 06:43:42;;;;;;;5.28;0.60;;;;;;;;;;5324569;28;20015;-67
2022/07/07 06:46:13;;;;;;;8.30;0.52;;;;;;;;;;5325079;28;20024;-67
2022/07/07 06:48:44;;;;;;;8.80;1.08;;;;;;;;;;5325303;28;20027;-68
2022/07/07 06:51:15;;;;;;;8.48;0.60;;;;;;;;;;5324372;28;20098;-69
2022/07/07 06:53:46;;;;;;;9.35;0.90;;;;;;;;;;5324984;28;20376;-68
2022/07/07 06:56:18;;;;;;;9.18;0.60;;;;;;;;;;5325025;28;20102;-68
2022/07/07 06:58:49;;;;;;;7.30;0.30;;;;;;;;;;5320346;28;20297;-68
2022/07/07 07:01:20;;;;;;;4.85;0.60;;;;;;;;;;5323538;28;20024;-69
2022/07/07 07:03:51;;;;;;;5.10;0.38;;;;;;;;;;5324541;28;20012;-69
2022/07/07 07:06:22;;;;;;;8.73;0.88;;;;;;;;;;5323285;28;20119;-69
2022/07/07 07:08:54;;;;;;;6.07;0.40;;;;;;;;;;5324821;28;20527;-68
2022/07/07 07:11:26;;;;;;;7.00;0.60;;;;;;;;;;5322611;27;20043;-69
2022/07/07 07:13:58;;;;;;;6.97;0.68;;;;;;;;;;5324483;28;20030;-68
2022/07/07 07:16:30;;;;;;;3.47;0.38;;;;;;;;;;5323846;28;20061;-69
2022/07/07 07:19:01;;;;;;;4.88;0.40;;;;;;;;;;5323039;27;20367;-68
2022/07/07 07:21:32;;;;;;;4.20;0.60;;;;;;;;;;5325195;28;20092;-69
2022/07/07 07:24:04;;;;;;;7.28;0.40;;;;;;;;;;5323836;28;20046;-69
2022/07/07 07:26:35;;;;;;;8.73;0.63;;;;;;;;;;5324256;28;20296;-69
2022/07/07 07:29:06;;;;;;;4.93;0.60;;;;;;;;;;5325140;28;20028;-70
2022/07/07 07:31:37;;;;;;;6.82;0.40;;;;;;;;;;5325234;28;20020;-69
2022/07/07 07:34:08;;;;;;;5.57;0.40;;;;;;;;;;5324327;27;20031;-69
2022/07/07 07:36:40;;;;;;;5.83;0.30;;;;;;;;;;5324721;28;20012;-68
2022/07/07 07:39:11;;;;;;;4.97;0.40;;;;;;;;;;5324966;28;20325;-69
2022/07/07 07:41:43;;;;;;;4.13;0.40;;;;;;;;;;5323930;28;20258;-69
2022/07/07 07:45:09;;;;;;;3.58;0.35;;;;;;;;;;5325002;28;20020;-70
2022/07/07 07:47:06;;;;;;;4.88;0.40;;;;;;;;;;5323663;28;20032;-68
2022/07/07 07:49:37;;;;;;;5.97;0.60;;;;;;;;;;5324383;28;20456;-68
2022/07/07 07:52:08;;;;;;;4.57;0.45;;;;;;;;;;5324444;28;20016;-69
2022/07/07 07:54:39;;;;;;;4.35;0.40;;;;;;;;;;5319559;28;20488;-68
2022/07/07 07:57:11;;;;;;;5.03;0.40;;;;;;;;;;5324062;28;20016;-68
2022/07/07 07:59:42;;;;;;;5.18;0.60;;;;;;;;;;5324248;28;20266;-69
2022/07/07 08:02:13;;;;;;;3.33;0.30;;;;;;;;;;5323333;28;20019;-69
2022/07/07 08:04:45;;;;;;;4.72;0.40;;;;;;;;;;5324397;28;20031;-69
2022/07/07 08:07:17;;;;;;;4.20;0.30;;;;;;;;;;5324265;28;20027;-68
2022/07/07 08:09:48;;;;;;;2.65;0.30;;;;;;;;;;5323650;28;20099;-69
2022/07/07 08:12:19;;;;;;;4.25;0.70;;;;;;;;;;5323570;28;20045;-69
2022/07/07 08:14:50;;;;;;;5.20;0.40;;;;;;;;;;5323785;28;20489;-68
2022/07/07 08:17:22;;;;;;;4.38;0.30;;;;;;;;;;5320819;28;20015;-69
2022/07/07 08:19:53;;;;;;;2.28;0.35;;;;;;;;;;5323341;28;20051;-69
2022/07/07 08:22:24;;;;;;;4.03;0.30;;;;;;;;;;5322945;28;20015;-68
2022/07/07 08:24:55;;;;;;;4.07;0.30;;;;;;;;;;5324386;28;20377;-69
2022/07/07 08:27:26;;;;;;;4.45;1.05;;;;;;;;;;5323676;28;20279;-69
2022/07/07 08:29:58;;;;;;;3.07;0.33;;;;;;;;;;5323615;28;20077;-70
2022/07/07 08:32:29;;;;;;;5.25;0.60;;;;;;;;;;5323459;28;20365;-69
2022/07/07 08:35:00;;;;;;;4.43;0.38;;;;;;;;;;5323420;28;20076;-69
2022/07/07 08:37:31;;;;;;;5.65;0.40;;;;;;;;;;5323048;28;20466;-68
2022/07/07 08:40:03;;;;;;;7.57;1.00;;;;;;;;;;5323530;28;20026;-69
2022/07/07 08:42:34;;;;;;;1.35;0.20;;;;;;;;;;5323945;28;20678;-69
2022/07/07 08:45:06;;;;;;;4.63;0.70;;;;;;;;;;5322848;28;20023;-69
2022/07/07 08:47:37;;;;;;;5.20;0.47;;;;;;;;;;5323789;28;20562;-69
2022/07/07 08:50:08;;;;;;;4.68;0.40;;;;;;;;;;5322863;28;20107;-69
2022/07/07 08:52:40;;;;;;;5.78;0.50;;;;;;;;;;5323474;28;20331;-69
2022/07/07 08:55:12;;;;;;;9.00;0.40;;;;;;;;;;5323701;28;20019;-69
2022/07/07 08:57:43;;;;;;;4.90;0.32;;;;;;;;;;5322802;28;20039;-69
2022/07/07 09:00:15;;;;;;;4.97;0.52;;;;;;;;;;5323554;28;20016;-69
2022/07/07 09:02:46;;;;;;;5.83;0.90;;;;;;;;;;5315713;28;20518;-69
2022/07/07 09:05:17;;;;;;;5.93;0.60;;;;;;;;;;5306765;28;20360;-69
2022/07/07 09:07:49;;;;;;;2.83;0.60;;;;;;;;;;5322470;28;20265;-69
2022/07/07 09:10:34;;;;;;;4.78;0.50;;;;;;;;;;5322022;28;20020;-69
2022/07/07 09:13:19;;;;;;;5.93;0.55;;;;;;;;;;5321921;28;20039;-68
2022/07/07 09:15:51;;;;;;;5.78;0.90;;;;;;;;;;5323636;28;20023;-68
2022/07/07 09:18:29;;;;;;;3.40;0.32;;;;;;;;;;5322210;28;20058;-69
2022/07/07 09:21:02;;;;;;;4.40;0.50;;;;;;;;;;5323242;28;20049;-68
2022/07/07 09:23:33;;;;;;;4.50;0.88;;;;;;;;;;5323259;28;20016;-68
2022/07/07 09:26:05;;;;;;;5.68;0.40;;;;;;;;;;5322281;28;20020;-68
2022/07/07 09:28:41;;;;;;;3.90;0.40;;;;;;;;;;5323373;28;20099;-69
2022/07/07 09:31:17;;;;;;;5.15;0.40;;;;;;;;;;5323234;28;20020;-69
2022/07/07 09:33:48;;;;;;;4.60;0.40;;;;;;;;;;5321910;28;20057;-69
2022/07/07 09:39:09;;;;;;;3.20;0.40;;;;;;;;;;5322262;28;20031;-69
2022/07/07 09:41:40;;;;;;;5.55;0.32;;;;;;;;;;5322959;28;20028;-70
2022/07/07 09:44:11;;;;;;;4.10;0.22;;;;;;;;;;5322894;28;20461;-69
2022/07/07 09:46:42;;;;;;;4.20;0.30;;;;;;;;;;5323886;28;20408;-69
2022/07/07 09:49:14;;;;;;;3.30;0.30;;;;;;;;;;5327401;28;20439;-69
2022/07/07 09:51:45;;;;;;;3.77;0.40;;;;;;;;;;5327134;28;20330;-69
2022/07/07 09:54:16;;;;;;;3.30;0.20;;;;;;;;;;5326537;28;20277;-69
2022/07/07 09:56:47;;;;;;;3.22;0.30;;;;;;;;;;5327262;28;20008;-69
2022/07/07 09:59:22;;;;;;;4.55;0.38;;;;;;;;;;5326715;28;20058;-69
2022/07/07 10:01:53;;;;;;;6.60;0.30;;;;;;;;;;5326807;28;20404;-69
2022/07/07 10:04:25;;;;;;;4.20;0.30;;;;;;;;;;5326775;28;20012;-69
2022/07/07 10:06:57;;;;;;;6.10;0.30;;;;;;;;;;5327534;28;20047;-69
2022/07/07 10:09:28;;;;;;;3.58;0.50;;;;;;;;;;5325780;28;20121;-70
2022/07/07 10:12:00;;;;;;;1.58;0.30;;;;;;;;;;5327055;28;20530;-69
2022/07/07 10:14:33;;;;;;;4.18;0.30;;;;;;;;;;5325880;28;20084;-69
2022/07/07 10:17:04;;;;;;;2.63;0.22;;;;;;;;;;5326899;28;20019;-70
2022/07/07 10:19:35;;;;;;;4.40;0.30;;;;;;;;;;5326564;28;20158;-69
2022/07/07 10:22:08;;;;;;;1.85;0.30;;;;;;;;;;5325794;28;20419;-70
2022/07/07 10:24:40;;;;;;;4.05;0.28;;;;;;;;;;5326800;28;20023;-70
2022/07/07 10:27:14;;;;;;;4.88;0.88;;;;;;;;;;5326683;28;20019;-69
2022/07/07 10:29:49;;;;;;;5.72;0.40;;;;;;;;;;5325921;28;20376;-69
2022/07/07 10:32:40;;;;;;;3.92;0.52;;;;;;;;;;5325969;28;20019;-69
2022/07/07 10:35:13;;;;;;;2.85;0.20;;;;;;;;;;5326362;28;20461;-69
2022/07/07 10:37:45;;;;;;;3.42;0.20;;;;;;;;;;5325480;27;20034;-69
2022/07/07 10:40:23;;;;;;;5.43;0.30;;;;;;;;;;5326387;28;20045;-69
2022/07/07 10:42:59;;;;;;;3.13;0.32;;;;;;;;;;5325630;28;20020;-69
2022/07/07 10:45:31;;;;;;;2.88;0.20;;;;;;;;;;5326380;28;20098;-69
2022/07/07 10:48:07;;;;;;;4.70;0.30;;;;;;;;;;5326126;28;20026;-70
2022/07/07 10:50:38;;;;;;;3.70;0.80;;;;;;;;;;5325275;28;20030;-69
2022/07/07 10:53:28;;;;;;;3.25;0.20;;;;;;;;;;5325914;28;20016;-69
2022/07/07 10:56:02;;;;;;;1.60;0.30;;;;;;;;;;5326015;28;20032;-68
2022/07/07 10:58:51;;;;;;;3.28;0.60;;;;;;;;;;5324895;28;20054;-69
2022/07/07 11:01:24;;;;;;;3.22;0.30;;;;;;;;;;5325482;28;20016;-69
2022/07/07 11:03:55;;;;;;;3.80;0.63;;;;;;;;;;5325219;28;20039;-69
2022/07/07 11:06:26;;;;;;;2.25;0.30;;;;;;;;;;5325661;28;20023;-69
2022/07/07 11:08:59;;;;;;;4.05;0.40;;;;;;;;;;5326144;28;20120;-69
2022/07/07 11:11:30;;;;;;;2.25;0.30;;;;;;;;;;5325018;28;20026;-69
2022/07/07 11:14:03;;;;;;;3.58;0.73;;;;;;;;;;5325313;28;20016;-69
2022/07/07 11:16:35;;;;;;;6.25;0.93;;;;;;;;;;5325541;28;20023;-69
2022/07/07 11:19:06;;;;;;;4.25;0.40;;;;;;;;;;5324709;28;20486;-69
2022/07/07 11:21:39;;;;;;;4.57;0.40;;;;;;;;;;5325487;28;20496;-69
2022/07/07 11:24:13;;;;;;;2.67;0.40;;;;;;;;;;5325514;28;20015;-69
2022/07/07 11:27:00;;;;;;;3.85;0.88;;;;;;;;;;5323915;28;20359;-69
2022/07/07 11:29:32;;;;;;;4.97;0.70;;;;;;;;;;5325308;28;20044;-70
2022/07/07 11:32:04;;;;;;;4.40;0.60;;;;;;;;;;5324584;28;20065;-70
2022/07/07 11:34:43;;;;;;;4.93;0.60;;;;;;;;;;5325112;28;20466;-69
2022/07/07 11:37:21;;;;;;;5.78;0.50;;;;;;;;;;5325267;28;20020;-70
2022/07/07 11:39:53;;;;;;;6.85;0.95;;;;;;;;;;5324734;28;20432;-69
2022/07/07 11:42:33;;;;;;;6.47;0.50;;;;;;;;;;5324806;28;20019;-69
2022/07/07 11:45:17;;;;;;;6.32;0.40;;;;;;;;;;5325037;28;20027;-68
2022/07/07 11:47:48;;;;;;;4.20;0.60;;;;;;;;;;5324255;28;20019;-70
2022/07/07 11:50:20;;;;;;;4.78;0.60;;;;;;;;;;5324684;27;20023;-70
2022/07/07 11:52:52;;;;;;;5.13;0.90;;;;;;;;;;5324463;27;20068;-70
2022/07/07 11:55:24;;;;;;;5.03;0.30;;;;;;;;;;5324479;28;20027;-68
2022/07/07 11:57:56;;;;;;;5.35;0.50;;;;;;;;;;5324859;27;20115;-68
2022/07/07 12:00:29;;;;;;;7.65;0.50;;;;;;;;;;5323625;28;20027;-68
2022/07/07 12:03:02;;;;;;;4.13;0.40;;;;;;;;;;5324534;28;20024;-68
2022/07/07 12:05:34;;;;;;;5.60;0.60;;;;;;;;;;5324456;28;20018;-69
2022/07/07 12:08:09;;;;;;;4.18;0.45;;;;;;;;;;5323499;28;20099;-69
2022/07/07 12:10:41;;;;;;;7.15;1.00;;;;;;;;;;5323982;28;20416;-68
2022/07/07 12:13:13;;;;;;;5.93;0.50;;;;;;;;;;5324299;28;20026;-69
2022/07/07 12:15:48;;;;;;;5.35;0.60;;;;;;;;;;5323462;28;20381;-69
2022/07/07 12:18:22;;;;;;;7.05;0.50;;;;;;;;;;5323838;28;20035;-69
2022/07/07 12:20:55;;;;;;;6.93;0.65;;;;;;;;;;5323488;28;20078;-69
2022/07/07 12:23:26;;;;;;;6.47;0.82;;;;;;;;;;5323656;28;20131;-69
2022/07/07 12:26:17;;;;;;;5.53;0.50;;;;;;;;;;5324434;28;20008;-68
2022/07/07 12:28:48;;;;;;;7.97;0.40;;;;;;;;;;5323318;28;20436;-68
2022/07/07 12:31:21;;;;;;;6.68;0.40;;;;;;;;;;5323574;28;20019;-68
2022/07/07 12:33:52;;;;;;;4.93;0.38;;;;;;;;;;5324078;28;20338;-68
2022/07/07 12:36:24;;;;;;;3.75;0.38;;;;;;;;;;5322972;28;20015;-69
2022/07/07 12:38:57;;;;;;;5.55;0.45;;;;;;;;;;5324330;28;20202;-68
2022/07/07 12:41:34;;;;;;;5.00;0.40;;;;;;;;;;5323522;28;20015;-68
2022/07/07 12:44:22;;;;;;;4.13;0.40;;;;;;;;;;5323222;28;20092;-69
2022/07/07 12:46:58;;;;;;;3.60;0.30;;;;;;;;;;5324304;28;20031;-68
2022/07/07 12:49:30;;;;;;;6.65;0.40;;;;;;;;;;5322846;28;20090;-68
2022/07/07 12:52:01;;;;;;;4.38;0.30;;;;;;;;;;5323606;28;20107;-67
2022/07/07 12:54:32;;;;;;;3.80;0.20;;;;;;;;;;5323922;28;20011;-68
2022/07/07 12:57:07;;;;;;;3.17;0.30;;;;;;;;;;5322990;28;20273;-67
2022/07/07 12:59:39;;;;;;;2.60;0.30;;;;;;;;;;5323490;28;20595;-68
2022/07/07 13:02:12;;;;;;;1.70;0.30;;;;;;;;;;5323493;28;20016;-68
2022/07/07 13:04:43;;;;;;;1.85;0.30;;;;;;;;;;5322706;28;20417;-67
2022/07/07 13:07:14;;;;;;;3.55;0.30;;;;;;;;;;5323479;28;20065;-67
2022/07/07 13:09:45;;;;;;;2.07;0.50;;;;;;;;;;5323669;28;20344;-67
2022/07/07 13:12:17;;;;;;;2.13;0.53;;;;;;;;;;5318202;28;20289;-67
2022/07/07 13:14:48;;;;;;;2.35;0.25;;;;;;;;;;5322477;28;20266;-67
2022/07/07 13:17:20;;;;;;;3.35;0.28;;;;;;;;;;5321744;28;20102;-67
2022/07/07 13:19:51;;;;;;;2.13;0.30;;;;;;;;;;5323566;28;20052;-67
2022/07/07 13:22:22;;;;;;;5.35;0.50;;;;;;;;;;5326984;28;20018;-67
2022/07/07 13:24:53;;;;;;;2.80;0.30;;;;;;;;;;5327107;28;20050;-67
2022/07/07 13:27:24;;;;;;;6.07;0.50;;;;;;;;;;5327284;28;20027;-67
2022/07/07 13:29:56;;;;;;;8.55;0.50;;;;;;;;;;5327807;28;20068;-67
2022/07/07 13:32:27;;;;;;;7.47;0.57;;;;;;;;;;5326053;28;20015;-67
2022/07/07 13:34:58;;;;;;;10.60;1.10;;;;;;;;;;5328190;28;20403;-67
2022/07/07 13:37:29;;;;;;;11.02;1.13;;;;;;;;;;5326860;28;20069;-67
2022/07/07 13:40:00;;;;;;;5.38;1.35;;;;;;;;;;5326523;28;20019;-68
2022/07/07 13:42:31;;;;;;;9.23;0.60;;;;;;;;;;5327399;28;20300;-66
2022/07/07 13:45:03;;;;;;;5.60;0.63;;;;;;;;;;5327299;28;20031;-66
2022/07/07 13:47:34;;;;;;;6.05;0.50;;;;;;;;;;5326476;28;20289;-67
2022/07/07 13:50:05;;;;;;;12.77;0.70;;;;;;;;;;5327007;28;20031;-68
2022/07/07 13:52:38;;;;;;;7.93;0.77;;;;;;;;;;5326160;28;20084;-67
2022/07/07 13:55:09;;;;;;;9.05;1.60;;;;;;;;;;5325387;28;20023;-68
2022/07/07 13:57:40;;;;;;;7.70;0.55;;;;;;;;;;5327021;28;20489;-68
2022/07/07 14:00:12;;;;;;;7.18;0.70;;;;;;;;;;5326204;28;20027;-69
2022/07/07 14:02:45;;;;;;;8.23;0.68;;;;;;;;;;5326797;28;20466;-68
2022/07/07 14:05:16;;;;;;;4.60;0.95;;;;;;;;;;5326921;28;20023;-68
2022/07/07 14:07:48;;;;;;;6.63;0.50;;;;;;;;;;5324526;28;20024;-68
2022/07/07 14:10:19;;;;;;;5.90;0.70;;;;;;;;;;5325421;28;20451;-68
2022/07/07 14:12:50;;;;;;;7.38;0.70;;;;;;;;;;5326144;28;20519;-68
2022/07/07 14:15:22;;;;;;;3.88;0.50;;;;;;;;;;5325205;28;20016;-68
2022/07/07 14:17:53;;;;;;;7.95;1.27;;;;;;;;;;5326951;28;20046;-68
2022/07/07 14:20:25;;;;;;;6.57;0.50;;;;;;;;;;5325530;28;20039;-68
2022/07/07 14:22:56;;;;;;;4.60;0.60;;;;;;;;;;5326671;28;20019;-68
2022/07/07 14:25:27;;;;;;;8.43;0.63;;;;;;;;;;5326173;28;20269;-67
2022/07/07 14:27:58;;;;;;;9.07;1.58;;;;;;;;;;5325825;28;20011;-68
2022/07/07 14:30:30;;;;;;;9.18;0.70;;;;;;;;;;5326127;28;20016;-68
2022/07/07 14:33:01;;;;;;;10.30;1.00;;;;;;;;;;5325768;28;20045;-68
2022/07/07 14:35:32;;;;;;;14.88;1.73;;;;;;;;;;5325432;28;20024;-68
2022/07/07 14:38:04;;;;;;;10.60;1.15;;;;;;;;;;5326130;28;20439;-68
2022/07/07 14:40:35;;;;;;;10.10;1.00;;;;;;;;;;5326162;28;20012;-68
2022/07/07 14:43:07;;;;;;;11.25;0.80;;;;;;;;;;5325495;28;20032;-68
2022/07/07 14:45:38;;;;;;;11.40;1.10;;;;;;;;;;5326339;28;20535;-68
2022/07/07 14:48:10;;;;;;;13.77;1.33;;;;;;;;;;5326063;28;20054;-68
2022/07/07 14:50:41;;;;;;;8.52;1.27;;;;;;;;;;5324970;28;20019;-68
2022/07/07 14:53:12;;;;;;;13.55;0.80;;;;;;;;;;5326066;28;20041;-68
2022/07/07 14:55:43;;;;;;;7.47;0.90;;;;;;;;;;5325190;28;20022;-68
2022/07/07 14:58:16;;;;;;;7.40;1.13;;;;;;;;;;5325698;28;20055;-68
2022/07/07 15:00:48;;;;;;;9.13;0.77;;;;;;;;;;5325688;28;20113;-68
2022/07/07 15:03:20;;;;;;;5.70;0.67;;;;;;;;;;5324479;28;20422;-69
2022/07/07 15:05:51;;;;;;;7.97;0.60;;;;;;;;;;5326081;28;20258;-68
2022/07/07 15:08:23;;;;;;;6.03;0.60;;;;;;;;;;5325438;28;20027;-68
2022/07/07 15:10:54;;;;;;;11.10;0.75;;;;;;;;;;5325261;28;20022;-68
2022/07/07 15:13:25;;;;;;;11.20;0.83;;;;;;;;;;5325175;28;20073;-68
2022/07/07 15:15:56;;;;;;;6.38;0.60;;;;;;;;;;5325431;28;20357;-68